Time;durP1;ratioP1;P1;durP2;ratioP2;P2;SDS_P1;SDS_P2;PMS_P1;PMS_P2;Temp;Humidity;BMP_temperature;BMP_pressure;BME280_temperature;BME280_humidity;BME280_pressure;Samples;Min_cycle;Max_cycle;Signal;HPM_P1;HPM_P2
2024/01/09 00:01:20;;;;;;;13.68;10.02;;;;;;;;;;6245657;22;20437;-76
2024/01/09 00:03:47;;;;;;;12.95;10.00;;;;;;;;;;6246212;22;20018;-77
2024/01/09 00:06:14;;;;;;;11.95;9.05;;;;;;;;;;6246095;22;20008;-77
2024/01/09 00:08:43;;;;;;;14.00;9.63;;;;;;;;;;6247498;22;20441;-77
2024/01/09 00:11:14;;;;;;;;;;;;;;;;;;6248454;22;20017;-76
2024/01/09 00:13:41;;;;;;;11.00;8.38;;;;;;;;;;6250500;22;19950;-76
2024/01/09 00:16:08;;;;;;;12.57;9.38;;;;;;;;;;6265601;22;20080;-76
2024/01/09 00:18:35;;;;;;;12.68;8.70;;;;;;;;;;6266462;22;20040;-76
2024/01/09 00:21:02;;;;;;;13.75;9.18;;;;;;;;;;6257452;22;20019;-76
2024/01/09 00:23:29;;;;;;;12.68;8.80;;;;;;;;;;6245722;22;20310;-76
2024/01/09 00:25:56;;;;;;;12.43;8.77;;;;;;;;;;6245939;22;20023;-77
2024/01/09 00:28:23;;;;;;;13.38;9.20;;;;;;;;;;6245495;22;20046;-76
2024/01/09 00:30:49;;;;;;;13.65;9.50;;;;;;;;;;6246202;22;20333;-77
2024/01/09 00:33:16;;;;;;;12.77;9.48;;;;;;;;;;6245548;22;20099;-77
2024/01/09 00:35:44;;;;;;;13.90;9.77;;;;;;;;;;6246007;22;20039;-77
2024/01/09 00:38:11;;;;;;;18.08;10.00;;;;;;;;;;6245475;22;20473;-76
2024/01/09 00:40:39;;;;;;;15.30;10.10;;;;;;;;;;6246076;22;20318;-77
2024/01/09 00:43:06;;;;;;;16.20;9.88;;;;;;;;;;6245157;22;20020;-76
2024/01/09 00:45:33;;;;;;;12.95;10.00;;;;;;;;;;6245767;22;20016;-77
2024/01/09 00:48:05;;;;;;;13.15;10.00;;;;;;;;;;6245479;22;20059;-76
2024/01/09 00:50:32;;;;;;;14.98;9.98;;;;;;;;;;6245939;22;20070;-76
2024/01/09 00:52:59;;;;;;;14.90;8.95;;;;;;;;;;6245870;22;20077;-77
2024/01/09 00:55:26;;;;;;;12.68;9.25;;;;;;;;;;6243607;22;20027;-76
2024/01/09 00:57:52;;;;;;;14.35;9.93;;;;;;;;;;6245689;22;20043;-77
2024/01/09 01:00:19;;;;;;;13.52;10.07;;;;;;;;;;6245182;22;20091;-76
2024/01/09 01:02:46;;;;;;;15.05;10.55;;;;;;;;;;6245718;22;20046;-76
2024/01/09 01:05:16;;;;;;;13.38;9.75;;;;;;;;;;6245319;22;20020;-77
2024/01/09 01:07:44;;;;;;;14.77;10.68;;;;;;;;;;6245711;22;20024;-76
2024/01/09 01:10:13;;;;;;;13.88;10.70;;;;;;;;;;6245370;22;20058;-77
2024/01/09 01:12:46;;;;;;;15.77;11.23;;;;;;;;;;6245831;22;20043;-76
2024/01/09 01:15:13;;;;;;;13.80;10.43;;;;;;;;;;6245205;22;20024;-76
2024/01/09 01:17:39;;;;;;;15.38;11.55;;;;;;;;;;6245617;22;20338;-76
2024/01/09 01:20:07;;;;;;;19.23;11.95;;;;;;;;;;6243487;22;20016;-76
2024/01/09 01:22:34;;;;;;;16.45;11.68;;;;;;;;;;6245741;22;20019;-76
2024/01/09 01:25:01;;;;;;;16.10;11.43;;;;;;;;;;6245499;22;20013;-77
2024/01/09 01:27:28;;;;;;;19.73;12.57;;;;;;;;;;6245152;22;20019;-76
2024/01/09 01:29:55;;;;;;;16.65;11.68;;;;;;;;;;6245482;22;20271;-76
2024/01/09 01:32:21;;;;;;;17.40;11.75;;;;;;;;;;6244918;22;20016;-76
2024/01/09 01:34:48;;;;;;;18.30;12.75;;;;;;;;;;6245555;22;20496;-76
2024/01/09 01:37:15;;;;;;;17.92;12.60;;;;;;;;;;6244455;22;20020;-76
2024/01/09 01:39:42;;;;;;;18.50;12.80;;;;;;;;;;6258258;22;20031;-75
2024/01/09 01:42:09;;;;;;;19.52;12.65;;;;;;;;;;6262341;22;20012;-74
2024/01/09 01:44:35;;;;;;;18.30;12.55;;;;;;;;;;6258789;22;20016;-76
2024/01/09 01:47:04;;;;;;;21.20;14.05;;;;;;;;;;6245609;22;20008;-76
2024/01/09 01:49:31;;;;;;;20.02;13.32;;;;;;;;;;6245179;22;20456;-76
2024/01/09 01:51:59;;;;;;;21.00;14.35;;;;;;;;;;6245510;22;20020;-76
2024/01/09 01:54:27;;;;;;;22.13;14.27;;;;;;;;;;6245020;22;20439;-76
2024/01/09 01:56:56;;;;;;;20.67;14.27;;;;;;;;;;6245536;22;20492;-76
2024/01/09 01:59:23;;;;;;;25.58;14.98;;;;;;;;;;6244834;22;20019;-76
2024/01/09 02:01:51;;;;;;;25.60;15.15;;;;;;;;;;6245244;22;20016;-76
2024/01/09 02:04:19;;;;;;;20.85;13.98;;;;;;;;;;6244808;22;20370;-76
2024/01/09 02:06:47;;;;;;;25.13;14.88;;;;;;;;;;6245551;22;20026;-76
2024/01/09 02:09:15;;;;;;;24.05;15.70;;;;;;;;;;6244839;22;20019;-76
2024/01/09 02:11:42;;;;;;;23.15;14.48;;;;;;;;;;6245260;22;20040;-76
2024/01/09 02:14:09;;;;;;;22.08;14.77;;;;;;;;;;6245122;22;20020;-76
2024/01/09 02:16:36;;;;;;;23.77;15.80;;;;;;;;;;6245295;22;20073;-77
2024/01/09 02:19:03;;;;;;;24.17;15.77;;;;;;;;;;6245244;22;20386;-76
2024/01/09 02:21:30;;;;;;;22.50;14.23;;;;;;;;;;6243501;23;20020;-76
2024/01/09 02:23:56;;;;;;;24.70;16.08;;;;;;;;;;6245154;22;20026;-77
2024/01/09 02:26:31;;;;;;;25.60;15.82;;;;;;;;;;6244773;22;20036;-76
2024/01/09 02:29:22;;;;;;;22.33;15.02;;;;;;;;;;6244826;22;20437;-77
2024/01/09 02:31:51;;;;;;;22.35;14.68;;;;;;;;;;6245876;22;20047;-76
2024/01/09 02:34:19;;;;;;;24.98;16.52;;;;;;;;;;6246672;22;20027;-76
2024/01/09 02:36:46;;;;;;;24.35;15.93;;;;;;;;;;6247270;22;20028;-77
2024/01/09 02:39:12;;;;;;;24.80;15.57;;;;;;;;;;6246557;22;20023;-77
2024/01/09 02:41:39;;;;;;;21.92;15.25;;;;;;;;;;6247045;22;20016;-76
2024/01/09 02:44:06;;;;;;;23.58;16.00;;;;;;;;;;6246138;22;20066;-76
2024/01/09 02:46:32;;;;;;;24.67;15.27;;;;;;;;;;6247130;22;20043;-76
2024/01/09 02:48:59;;;;;;;23.17;15.75;;;;;;;;;;6246992;22;20012;-76
2024/01/09 02:51:26;;;;;;;22.80;15.35;;;;;;;;;;6246392;22;20012;-76
2024/01/09 02:53:53;;;;;;;23.80;16.00;;;;;;;;;;6246936;22;20074;-76
2024/01/09 02:56:20;;;;;;;26.42;16.38;;;;;;;;;;6246462;22;20050;-76
2024/01/09 02:58:47;;;;;;;25.13;16.15;;;;;;;;;;6247056;22;20020;-76
2024/01/09 03:01:13;;;;;;;26.02;16.17;;;;;;;;;;6246651;22;20024;-77
2024/01/09 03:03:40;;;;;;;26.65;15.77;;;;;;;;;;6246848;22;20018;-76
2024/01/09 03:06:07;;;;;;;24.80;15.80;;;;;;;;;;6246521;22;20012;-77
2024/01/09 03:08:34;;;;;;;25.13;15.65;;;;;;;;;;6246830;22;20016;-76
2024/01/09 03:11:00;;;;;;;24.35;16.30;;;;;;;;;;6246690;22;20012;-77
2024/01/09 03:13:27;;;;;;;23.77;15.55;;;;;;;;;;6246484;22;20020;-77
2024/01/09 03:15:54;;;;;;;28.73;16.38;;;;;;;;;;6246916;22;20016;-77
2024/01/09 03:18:20;;;;;;;24.92;16.25;;;;;;;;;;6246152;22;20015;-76
2024/01/09 03:20:47;;;;;;;24.35;16.00;;;;;;;;;;6246738;22;20020;-76
2024/01/09 03:23:14;;;;;;;24.33;16.52;;;;;;;;;;6246175;22;20020;-77
2024/01/09 03:25:41;;;;;;;26.52;16.45;;;;;;;;;;6246636;22;20437;-77
2024/01/09 03:28:08;;;;;;;24.67;15.77;;;;;;;;;;6246194;22;20027;-77
2024/01/09 03:30:35;;;;;;;28.48;16.63;;;;;;;;;;6246809;22;20016;-76
2024/01/09 03:33:01;;;;;;;25.38;16.17;;;;;;;;;;6246733;22;20016;-76
2024/01/09 03:35:28;;;;;;;26.75;17.33;;;;;;;;;;6246165;22;20024;-76
2024/01/09 03:37:55;;;;;;;24.00;16.48;;;;;;;;;;6245094;23;20069;-76
2024/01/09 03:40:22;;;;;;;25.98;16.83;;;;;;;;;;6245743;22;20035;-77
2024/01/09 03:42:48;;;;;;;27.08;16.73;;;;;;;;;;6246319;22;20026;-76
2024/01/09 03:45:15;;;;;;;24.85;15.05;;;;;;;;;;6245772;22;20035;-76
2024/01/09 03:47:42;;;;;;;23.80;16.95;;;;;;;;;;6246476;22;20333;-76
2024/01/09 03:50:09;;;;;;;25.02;16.45;;;;;;;;;;6245847;22;20020;-76
2024/01/09 03:52:36;;;;;;;24.38;15.55;;;;;;;;;;6246649;22;20004;-77
2024/01/09 03:55:02;;;;;;;24.92;16.02;;;;;;;;;;6246470;22;20023;-76
2024/01/09 03:57:29;;;;;;;29.20;16.10;;;;;;;;;;6245998;22;20016;-76
2024/01/09 03:59:56;;;;;;;24.05;16.30;;;;;;;;;;6246316;22;20022;-76
2024/01/09 04:02:23;;;;;;;26.23;16.05;;;;;;;;;;6245688;22;20459;-77
2024/01/09 04:04:49;;;;;;;25.50;15.65;;;;;;;;;;6246335;22;20046;-76
2024/01/09 04:07:16;;;;;;;24.80;16.48;;;;;;;;;;6245966;22;20090;-77
2024/01/09 04:09:43;;;;;;;24.58;15.95;;;;;;;;;;6246184;22;20022;-76
2024/01/09 04:12:10;;;;;;;24.10;15.57;;;;;;;;;;6245571;22;20306;-77
2024/01/09 04:14:37;;;;;;;25.83;15.82;;;;;;;;;;6246202;22;20008;-76
2024/01/09 04:17:04;;;;;;;26.20;16.17;;;;;;;;;;6245737;22;20096;-76
2024/01/09 04:19:31;;;;;;;23.77;15.45;;;;;;;;;;6246295;22;20019;-77
2024/01/09 04:21:58;;;;;;;23.48;15.65;;;;;;;;;;6246050;22;20441;-76
2024/01/09 04:24:25;;;;;;;24.45;16.55;;;;;;;;;;6245508;22;20083;-77
2024/01/09 04:26:52;;;;;;;21.30;14.90;;;;;;;;;;6246156;22;20476;-76
2024/01/09 04:29:19;;;;;;;22.25;15.38;;;;;;;;;;6218914;22;20329;-76
2024/01/09 04:31:45;;;;;;;21.73;15.25;;;;;;;;;;6245900;22;20023;-76
2024/01/09 04:34:12;;;;;;;23.13;15.85;;;;;;;;;;6245529;22;20062;-76
2024/01/09 04:36:39;;;;;;;22.58;15.10;;;;;;;;;;6244311;23;20020;-77
2024/01/09 04:39:06;;;;;;;25.05;15.55;;;;;;;;;;6245684;22;20020;-77
2024/01/09 04:41:33;;;;;;;24.35;16.20;;;;;;;;;;6245781;22;20078;-77
2024/01/09 04:43:59;;;;;;;25.90;16.50;;;;;;;;;;6246060;22;20422;-77
2024/01/09 04:46:27;;;;;;;21.80;14.93;;;;;;;;;;6245227;22;20024;-76
2024/01/09 04:48:54;;;;;;;24.42;15.68;;;;;;;;;;6246193;22;20364;-77
2024/01/09 04:51:21;;;;;;;22.73;15.68;;;;;;;;;;6245208;22;20020;-76
2024/01/09 04:53:48;;;;;;;24.70;15.68;;;;;;;;;;6245709;22;20051;-76
2024/01/09 04:56:14;;;;;;;22.88;15.80;;;;;;;;;;6245223;22;20070;-76
2024/01/09 04:58:41;;;;;;;24.73;16.02;;;;;;;;;;6245800;22;20074;-76
2024/01/09 05:01:11;;;;;;;22.08;15.18;;;;;;;;;;6245405;22;20016;-77
2024/01/09 05:03:38;;;;;;;24.58;15.88;;;;;;;;;;6245829;22;20028;-76
2024/01/09 05:06:05;;;;;;;22.70;14.65;;;;;;;;;;6245521;22;20454;-76
2024/01/09 05:08:32;;;;;;;23.45;15.68;;;;;;;;;;6245465;22;20464;-76
2024/01/09 05:10:58;;;;;;;22.27;15.07;;;;;;;;;;6245710;22;20054;-76
2024/01/09 05:13:26;;;;;;;22.25;14.80;;;;;;;;;;6245380;22;20378;-77
2024/01/09 05:15:52;;;;;;;23.08;15.15;;;;;;;;;;6245504;22;20016;-76
2024/01/09 05:18:19;;;;;;;24.35;14.95;;;;;;;;;;6245099;22;20178;-77
2024/01/09 05:20:46;;;;;;;23.95;15.98;;;;;;;;;;6245839;22;20043;-76
2024/01/09 05:23:13;;;;;;;25.05;15.07;;;;;;;;;;6245275;22;20016;-77
2024/01/09 05:25:39;;;;;;;23.52;15.98;;;;;;;;;;6245515;22;20024;-76
2024/01/09 05:28:06;;;;;;;24.23;16.13;;;;;;;;;;6244999;22;20441;-76
2024/01/09 05:30:33;;;;;;;20.38;14.27;;;;;;;;;;6245721;22;20031;-77
2024/01/09 05:33:00;;;;;;;27.15;14.63;;;;;;;;;;6245384;22;20099;-76
2024/01/09 05:35:27;;;;;;;21.90;15.13;;;;;;;;;;6245090;22;20087;-76
2024/01/09 05:37:54;;;;;;;21.30;14.52;;;;;;;;;;6245038;22;20024;-80
2024/01/09 05:40:36;;;;;;;21.20;14.27;;;;;;;;;;6242631;23;20099;-76
2024/01/09 05:43:03;;;;;;;22.10;14.60;;;;;;;;;;6245454;22;20020;-76
2024/01/09 05:45:31;;;;;;;20.02;14.57;;;;;;;;;;6244481;22;20016;-77
2024/01/09 05:47:57;;;;;;;24.15;14.90;;;;;;;;;;6243691;22;20020;-76
2024/01/09 05:50:24;;;;;;;24.33;15.13;;;;;;;;;;6244791;22;20012;-76
2024/01/09 05:52:51;;;;;;;20.52;14.60;;;;;;;;;;6245558;22;20012;-75
2024/01/09 05:55:17;;;;;;;22.60;14.95;;;;;;;;;;6243197;22;20008;-76
2024/01/09 05:57:45;;;;;;;22.13;14.70;;;;;;;;;;6245380;22;20329;-76
2024/01/09 06:00:12;;;;;;;21.63;15.32;;;;;;;;;;6244797;22;20334;-76
2024/01/09 06:02:39;;;;;;;24.90;15.25;;;;;;;;;;6245142;22;20043;-76
2024/01/09 06:05:06;;;;;;;20.88;14.32;;;;;;;;;;6244556;22;20111;-76
2024/01/09 06:07:33;;;;;;;21.48;15.40;;;;;;;;;;6247223;22;20015;-75
2024/01/09 06:09:59;;;;;;;20.88;15.05;;;;;;;;;;6247211;22;20013;-76
2024/01/09 06:12:26;;;;;;;21.85;14.23;;;;;;;;;;6246827;22;20020;-77
2024/01/09 06:14:53;;;;;;;21.15;14.23;;;;;;;;;;6247535;22;20012;-76
2024/01/09 06:17:21;;;;;;;20.55;14.00;;;;;;;;;;6247086;22;20364;-76
2024/01/09 06:19:47;;;;;;;21.92;15.20;;;;;;;;;;6248032;22;20445;-76
2024/01/09 06:22:14;;;;;;;22.05;15.27;;;;;;;;;;6248843;22;20015;-76
2024/01/09 06:24:41;;;;;;;21.95;15.45;;;;;;;;;;6253677;22;20017;-75
2024/01/09 06:27:07;;;;;;;21.23;15.02;;;;;;;;;;6253432;22;20381;-75
2024/01/09 06:29:34;;;;;;;19.88;14.52;;;;;;;;;;6258853;22;20023;-76
2024/01/09 06:32:01;;;;;;;21.58;15.30;;;;;;;;;;6248178;22;20020;-76
2024/01/09 06:34:28;;;;;;;23.55;15.75;;;;;;;;;;6244226;22;20038;-76
2024/01/09 06:36:54;;;;;;;21.23;15.55;;;;;;;;;;6244888;22;20098;-76
2024/01/09 06:39:21;;;;;;;22.92;15.52;;;;;;;;;;6244376;22;20012;-76
2024/01/09 06:41:48;;;;;;;22.23;15.35;;;;;;;;;;6243205;23;20332;-76
2024/01/09 06:44:14;;;;;;;24.80;15.95;;;;;;;;;;6242521;22;20020;-75
2024/01/09 06:46:41;;;;;;;21.63;14.70;;;;;;;;;;6268900;22;20283;-75
2024/01/09 06:49:08;;;;;;;24.08;16.02;;;;;;;;;;6246459;22;20016;-76
2024/01/09 06:51:35;;;;;;;20.85;15.13;;;;;;;;;;6246885;22;20035;-76
2024/01/09 06:54:02;;;;;;;22.90;14.88;;;;;;;;;;6247073;22;20044;-76
2024/01/09 06:56:29;;;;;;;23.30;15.48;;;;;;;;;;6246688;22;20016;-76
2024/01/09 06:58:55;;;;;;;21.92;15.20;;;;;;;;;;6247058;22;20536;-75
2024/01/09 07:01:22;;;;;;;26.75;16.05;;;;;;;;;;6246332;22;20008;-76
2024/01/09 07:03:49;;;;;;;24.60;15.27;;;;;;;;;;6246854;22;20039;-75
2024/01/09 07:06:16;;;;;;;24.05;15.15;;;;;;;;;;6246403;22;20386;-77
2024/01/09 07:08:43;;;;;;;25.55;15.55;;;;;;;;;;6247144;22;20099;-76
2024/01/09 07:11:09;;;;;;;21.98;15.82;;;;;;;;;;6246313;22;20016;-76
2024/01/09 07:13:36;;;;;;;26.65;16.33;;;;;;;;;;6246621;22;20016;-75
2024/01/09 07:16:03;;;;;;;27.27;15.77;;;;;;;;;;6246673;22;20012;-76
2024/01/09 07:18:30;;;;;;;27.02;16.38;;;;;;;;;;6245905;22;20024;-76
2024/01/09 07:20:57;;;;;;;26.38;16.70;;;;;;;;;;6250822;22;20066;-76
2024/01/09 07:23:24;;;;;;;34.40;19.75;;;;;;;;;;6246870;22;20390;-76
2024/01/09 07:25:51;;;;;;;36.03;19.63;;;;;;;;;;6246229;22;20104;-76
2024/01/09 07:28:19;;;;;;;25.10;16.00;;;;;;;;;;6246723;22;20016;-76
2024/01/09 07:30:47;;;;;;;31.88;16.50;;;;;;;;;;6270701;22;20020;-76
2024/01/09 07:33:15;;;;;;;32.90;17.58;;;;;;;;;;6246254;22;20336;-76
2024/01/09 07:35:42;;;;;;;26.83;16.45;;;;;;;;;;6246710;22;20063;-76
2024/01/09 07:38:09;;;;;;;29.77;18.13;;;;;;;;;;6246207;22;20016;-75
2024/01/09 07:40:35;;;;;;;24.60;17.00;;;;;;;;;;6246613;22;20023;-75
2024/01/09 07:43:02;;;;;;;27.02;16.70;;;;;;;;;;6246706;22;20118;-75
2024/01/09 07:45:29;;;;;;;27.90;17.77;;;;;;;;;;6245973;22;20614;-76
2024/01/09 07:47:57;;;;;;;27.95;17.15;;;;;;;;;;6246406;22;20012;-76
2024/01/09 07:50:25;;;;;;;30.05;17.85;;;;;;;;;;6245919;22;20047;-76
2024/01/09 07:52:51;;;;;;;32.35;17.10;;;;;;;;;;6244855;23;20016;-76
2024/01/09 07:55:18;;;;;;;27.65;18.10;;;;;;;;;;6245983;22;20024;-76
2024/01/09 07:57:45;;;;;;;27.27;17.30;;;;;;;;;;6246224;22;20016;-76
2024/01/09 08:00:13;;;;;;;28.38;18.05;;;;;;;;;;6245858;22;20012;-76
2024/01/09 08:02:39;;;;;;;29.98;18.42;;;;;;;;;;6245872;22;20024;-76
2024/01/09 08:05:06;;;;;;;32.65;18.20;;;;;;;;;;6245816;22;20012;-76
2024/01/09 08:07:33;;;;;;;28.33;18.52;;;;;;;;;;6246292;22;20016;-76
2024/01/09 08:10:00;;;;;;;29.05;17.75;;;;;;;;;;6246267;22;20012;-76
2024/01/09 08:12:26;;;;;;;30.75;18.70;;;;;;;;;;6245538;22;20020;-76
2024/01/09 08:14:53;;;;;;;30.98;20.10;;;;;;;;;;6245953;22;20441;-76
2024/01/09 08:17:21;;;;;;;33.10;19.40;;;;;;;;;;6245630;22;20099;-75
2024/01/09 08:19:48;;;;;;;36.72;21.10;;;;;;;;;;6245862;22;20020;-76
2024/01/09 08:22:15;;;;;;;41.13;23.15;;;;;;;;;;6245247;22;20020;-76
2024/01/09 08:24:41;;;;;;;38.50;22.17;;;;;;;;;;6245796;22;20016;-76
2024/01/09 08:27:08;;;;;;;40.05;22.85;;;;;;;;;;6245200;22;20022;-75
2024/01/09 08:29:35;;;;;;;41.38;23.13;;;;;;;;;;6245525;22;20087;-75
2024/01/09 08:32:02;;;;;;;38.08;20.90;;;;;;;;;;6246078;22;20115;-76
2024/01/09 08:34:29;;;;;;;39.30;21.48;;;;;;;;;;6245454;22;20020;-76
2024/01/09 08:36:55;;;;;;;37.33;21.85;;;;;;;;;;6245973;22;20019;-75
2024/01/09 08:39:22;;;;;;;34.63;20.48;;;;;;;;;;6245498;22;20074;-75
2024/01/09 08:41:49;;;;;;;33.50;20.65;;;;;;;;;;6245925;22;20016;-76
2024/01/09 08:44:17;;;;;;;32.50;19.20;;;;;;;;;;6245147;22;20027;-76
2024/01/09 08:46:44;;;;;;;38.17;20.90;;;;;;;;;;6246072;22;20066;-75
2024/01/09 08:49:12;;;;;;;36.60;20.27;;;;;;;;;;6245592;22;20023;-75
2024/01/09 08:51:39;;;;;;;36.83;20.73;;;;;;;;;;6245941;22;20012;-76
2024/01/09 08:54:07;;;;;;;33.83;19.52;;;;;;;;;;6245439;22;20087;-75
2024/01/09 08:56:34;;;;;;;42.83;20.85;;;;;;;;;;6245467;22;20016;-75
2024/01/09 08:59:01;;;;;;;81.43;21.45;;;;;;;;;;6246046;22;20012;-76
2024/01/09 09:01:29;;;;;;;52.58;20.50;;;;;;;;;;6241360;22;20115;-76
2024/01/09 09:03:56;;;;;;;47.97;20.90;;;;;;;;;;6243078;22;20016;-76
2024/01/09 09:06:23;;;;;;;45.03;19.63;;;;;;;;;;6245155;22;20247;-76
2024/01/09 09:08:49;;;;;;;38.17;21.27;;;;;;;;;;6245622;22;20496;-76
2024/01/09 09:11:16;;;;;;;43.97;20.75;;;;;;;;;;6243118;22;20093;-76
2024/01/09 09:13:44;;;;;;;35.17;20.95;;;;;;;;;;6244445;22;20020;-76
2024/01/09 09:16:11;;;;;;;38.05;21.08;;;;;;;;;;6245172;22;20317;-75
2024/01/09 09:18:38;;;;;;;36.90;20.63;;;;;;;;;;6243469;22;20027;-76
2024/01/09 09:21:05;;;;;;;37.55;21.35;;;;;;;;;;6243241;22;20020;-75
2024/01/09 09:23:32;;;;;;;37.45;21.63;;;;;;;;;;6244124;22;20329;-76
2024/01/09 09:25:59;;;;;;;34.80;19.67;;;;;;;;;;6245112;22;20024;-75
2024/01/09 09:28:25;;;;;;;32.50;19.20;;;;;;;;;;6244559;22;20050;-75
2024/01/09 09:31:06;;;;;;;40.45;19.92;;;;;;;;;;6244935;22;20023;-75
2024/01/09 09:33:33;;;;;;;28.65;18.70;;;;;;;;;;6245714;22;20074;-76
2024/01/09 09:36:07;;;;;;;28.70;18.05;;;;;;;;;;6245375;22;20091;-75
2024/01/09 09:38:34;;;;;;;26.08;16.88;;;;;;;;;;6245365;22;20073;-76
2024/01/09 09:41:05;;;;;;;27.48;18.08;;;;;;;;;;6246316;22;20081;-76
2024/01/09 09:43:35;;;;;;;26.73;17.98;;;;;;;;;;6247246;22;20444;-75
2024/01/09 09:46:05;;;;;;;27.25;17.45;;;;;;;;;;6247360;22;20024;-75
2024/01/09 09:48:35;;;;;;;25.08;16.88;;;;;;;;;;6247207;22;20457;-76
2024/01/09 09:51:04;;;;;;;23.67;15.52;;;;;;;;;;6247729;22;20437;-74
2024/01/09 09:53:31;;;;;;;28.23;17.15;;;;;;;;;;6247411;22;20043;-75
2024/01/09 09:55:58;;;;;;;26.55;16.70;;;;;;;;;;6271318;22;20020;-76
2024/01/09 09:58:25;;;;;;;24.95;16.40;;;;;;;;;;6246812;22;20013;-75
2024/01/09 10:00:56;;;;;;;26.38;16.77;;;;;;;;;;6247451;22;20372;-76
2024/01/09 10:03:30;;;;;;;22.85;16.20;;;;;;;;;;6247169;22;20020;-75
2024/01/09 10:06:02;;;;;;;23.13;15.25;;;;;;;;;;6247568;22;20024;-76
2024/01/09 10:08:33;;;;;;;23.65;15.32;;;;;;;;;;6247218;22;20024;-76
2024/01/09 10:11:01;;;;;;;25.08;15.60;;;;;;;;;;6247321;22;20017;-74
2024/01/09 10:13:28;;;;;;;24.45;16.50;;;;;;;;;;6246902;22;20444;-75
2024/01/09 10:15:58;;;;;;;22.55;15.50;;;;;;;;;;6247394;22;20016;-75
2024/01/09 10:18:29;;;;;;;22.38;16.52;;;;;;;;;;6246652;22;20026;-75
2024/01/09 10:20:59;;;;;;;20.02;15.10;;;;;;;;;;6247355;22;20023;-76
2024/01/09 10:23:27;;;;;;;21.58;15.43;;;;;;;;;;6247077;22;20026;-75
2024/01/09 10:25:55;;;;;;;20.50;15.95;;;;;;;;;;6247123;22;20012;-75
2024/01/09 10:28:22;;;;;;;20.87;16.00;;;;;;;;;;6247058;22;20016;-75
2024/01/09 10:30:53;;;;;;;21.65;15.15;;;;;;;;;;6247254;22;20404;-75
2024/01/09 10:33:19;;;;;;;21.45;15.25;;;;;;;;;;6246664;22;20015;-76
2024/01/09 10:35:47;;;;;;;19.70;14.65;;;;;;;;;;6247259;22;20012;-76
2024/01/09 10:38:13;;;;;;;22.23;14.95;;;;;;;;;;6247451;22;20020;-76
2024/01/09 10:40:40;;;;;;;20.75;15.35;;;;;;;;;;6248786;22;20012;-75
2024/01/09 10:43:07;;;;;;;19.65;14.18;;;;;;;;;;6255781;22;20035;-74
2024/01/09 10:45:35;;;;;;;20.30;14.77;;;;;;;;;;6256966;22;20016;-75
2024/01/09 10:48:04;;;;;;;23.05;17.02;;;;;;;;;;6257202;22;20036;-76
2024/01/09 10:50:32;;;;;;;22.08;15.15;;;;;;;;;;6247049;22;20016;-75
2024/01/09 10:52:59;;;;;;;20.55;15.35;;;;;;;;;;6246401;22;20487;-76
2024/01/09 10:55:26;;;;;;;24.20;14.95;;;;;;;;;;6246427;22;20019;-76
2024/01/09 10:57:52;;;;;;;21.13;15.50;;;;;;;;;;6247105;22;20020;-76
2024/01/09 11:00:21;;;;;;;19.38;14.70;;;;;;;;;;6246404;22;20020;-76
2024/01/09 11:02:48;;;;;;;20.70;16.00;;;;;;;;;;6247086;22;20016;-76
2024/01/09 11:05:15;;;;;;;19.60;15.00;;;;;;;;;;6246337;22;20020;-75
2024/01/09 11:07:44;;;;;;;89.93;35.17;;;;;;;;;;6246959;22;20019;-76
2024/01/09 11:10:19;;;;;;;37.55;20.52;;;;;;;;;;6246595;22;20017;-75
2024/01/09 11:12:49;;;;;;;20.77;15.15;;;;;;;;;;6246869;22;20020;-76
2024/01/09 11:15:24;;;;;;;21.00;15.15;;;;;;;;;;6246373;22;20047;-76
2024/01/09 11:18:14;;;;;;;19.48;14.40;;;;;;;;;;6246723;22;20023;-76
2024/01/09 11:20:41;;;;;;;18.25;14.13;;;;;;;;;;6246667;22;20020;-76
2024/01/09 11:23:11;;;;;;;20.65;15.05;;;;;;;;;;6246350;22;20012;-75
2024/01/09 11:25:38;;;;;;;19.65;15.43;;;;;;;;;;6246495;22;20016;-76
2024/01/09 11:28:06;;;;;;;19.02;15.18;;;;;;;;;;6246279;22;20012;-76
2024/01/09 11:30:33;;;;;;;19.58;15.10;;;;;;;;;;6245049;23;20016;-76
2024/01/09 11:33:27;;;;;;;19.08;13.98;;;;;;;;;;6245914;22;20047;-75
2024/01/09 11:35:54;;;;;;;18.98;14.60;;;;;;;;;;6246561;22;20031;-76
2024/01/09 11:38:22;;;;;;;19.45;14.48;;;;;;;;;;6245813;22;20499;-75
2024/01/09 11:40:48;;;;;;;20.40;15.25;;;;;;;;;;6246775;22;20023;-76
2024/01/09 11:43:15;;;;;;;18.70;15.38;;;;;;;;;;6245911;22;20008;-76
2024/01/09 11:45:44;;;;;;;20.70;15.27;;;;;;;;;;6246118;22;20040;-76
2024/01/09 11:48:11;;;;;;;19.92;14.70;;;;;;;;;;6246038;22;20018;-76
2024/01/09 11:50:41;;;;;;;19.08;14.40;;;;;;;;;;6269602;22;20317;-77
2024/01/09 11:53:09;;;;;;;17.65;14.32;;;;;;;;;;6245968;22;20031;-76
2024/01/09 11:55:36;;;;;;;18.05;14.60;;;;;;;;;;6246431;22;20019;-76
2024/01/09 11:58:04;;;;;;;20.08;14.85;;;;;;;;;;6246600;22;20019;-76
2024/01/09 12:00:31;;;;;;;20.30;14.82;;;;;;;;;;6246001;22;20020;-77
2024/01/09 12:02:59;;;;;;;20.48;14.23;;;;;;;;;;6244762;23;20043;-77
2024/01/09 12:05:27;;;;;;;34.22;20.25;;;;;;;;;;6245625;22;20020;-76
2024/01/09 12:07:54;;;;;;;20.17;14.10;;;;;;;;;;6246319;22;20012;-76
2024/01/09 12:10:21;;;;;;;26.17;17.63;;;;;;;;;;6245764;22;20032;-77
2024/01/09 12:13:03;;;;;;;18.63;14.32;;;;;;;;;;6246240;22;20023;-77
2024/01/09 12:15:30;;;;;;;17.83;13.88;;;;;;;;;;6246110;22;20018;-76
2024/01/09 12:17:58;;;;;;;24.15;17.23;;;;;;;;;;6246223;22;20032;-77
2024/01/09 12:20:26;;;;;;;21.60;14.90;;;;;;;;;;6245573;22;20027;-77
2024/01/09 12:22:54;;;;;;;19.25;14.07;;;;;;;;;;6246412;22;20020;-77
2024/01/09 12:25:22;;;;;;;20.92;14.43;;;;;;;;;;6245759;22;20091;-77
2024/01/09 12:27:49;;;;;;;20.60;14.80;;;;;;;;;;6246315;22;20020;-77
2024/01/09 12:30:16;;;;;;;21.13;15.38;;;;;;;;;;6245665;22;20504;-77
2024/01/09 12:32:43;;;;;;;18.50;14.23;;;;;;;;;;6244826;23;20016;-77
2024/01/09 12:35:11;;;;;;;18.65;14.43;;;;;;;;;;6245452;22;20492;-76
2024/01/09 12:37:38;;;;;;;20.35;14.13;;;;;;;;;;6246133;22;20023;-77
2024/01/09 12:40:09;;;;;;;19.40;14.90;;;;;;;;;;6245949;22;20012;-77
2024/01/09 12:42:36;;;;;;;18.92;14.82;;;;;;;;;;6245626;22;20291;-77
2024/01/09 12:45:04;;;;;;;17.00;13.55;;;;;;;;;;6245504;22;20086;-77
2024/01/09 12:47:31;;;;;;;16.92;13.32;;;;;;;;;;6245743;22;20023;-77
2024/01/09 12:49:58;;;;;;;19.67;14.65;;;;;;;;;;6246064;22;20036;-77
2024/01/09 12:52:31;;;;;;;20.50;14.73;;;;;;;;;;6245512;22;20046;-77
2024/01/09 12:55:00;;;;;;;20.15;15.02;;;;;;;;;;6246224;22;20338;-77
2024/01/09 12:57:31;;;;;;;18.83;14.55;;;;;;;;;;6245444;22;20024;-77
2024/01/09 12:59:57;;;;;;;20.80;15.07;;;;;;;;;;6245933;22;20074;-76
2024/01/09 13:02:25;;;;;;;17.85;14.45;;;;;;;;;;6245017;22;20441;-76
2024/01/09 13:04:53;;;;;;;20.60;14.40;;;;;;;;;;6245825;22;20047;-76
2024/01/09 13:07:20;;;;;;;19.98;14.80;;;;;;;;;;6245215;22;20329;-76
2024/01/09 13:09:48;;;;;;;20.88;14.85;;;;;;;;;;6245739;22;20038;-77
2024/01/09 13:12:16;;;;;;;20.02;15.18;;;;;;;;;;6245486;22;20008;-77
2024/01/09 13:14:43;;;;;;;21.35;16.00;;;;;;;;;;6245732;22;20030;-76
2024/01/09 13:17:11;;;;;;;19.65;14.27;;;;;;;;;;6245038;22;20022;-76
2024/01/09 13:19:38;;;;;;;19.33;14.10;;;;;;;;;;6245625;22;20030;-77
2024/01/09 13:22:05;;;;;;;20.85;15.23;;;;;;;;;;6245396;22;20421;-76
2024/01/09 13:24:34;;;;;;;19.85;16.17;;;;;;;;;;6245597;22;20024;-76
2024/01/09 13:27:03;;;;;;;18.73;14.07;;;;;;;;;;6245504;22;20098;-77
2024/01/09 13:29:31;;;;;;;20.35;15.43;;;;;;;;;;6245312;22;20016;-76
2024/01/09 13:32:01;;;;;;;18.30;14.32;;;;;;;;;;6245681;22;20032;-77
2024/01/09 13:34:28;;;;;;;19.77;14.63;;;;;;;;;;6244817;22;20027;-76
2024/01/09 13:36:56;;;;;;;20.05;13.95;;;;;;;;;;6245447;22;20333;-77
2024/01/09 13:39:24;;;;;;;21.63;14.98;;;;;;;;;;6244867;22;20043;-76
2024/01/09 13:41:51;;;;;;;23.67;14.75;;;;;;;;;;6245351;22;20032;-77
2024/01/09 13:44:19;;;;;;;20.77;15.18;;;;;;;;;;6244802;22;20082;-77
2024/01/09 13:46:47;;;;;;;21.38;15.38;;;;;;;;;;6245559;22;20016;-76
2024/01/09 13:49:14;;;;;;;21.42;14.70;;;;;;;;;;6244918;22;20433;-76
2024/01/09 13:51:41;;;;;;;19.40;14.38;;;;;;;;;;6245411;22;20094;-76
2024/01/09 13:54:21;;;;;;;19.25;14.75;;;;;;;;;;6244744;22;20012;-76
2024/01/09 13:56:48;;;;;;;19.95;14.23;;;;;;;;;;6245533;22;20374;-77
2024/01/09 13:59:15;;;;;;;19.40;14.15;;;;;;;;;;6244999;22;20012;-76
2024/01/09 14:01:43;;;;;;;19.50;14.73;;;;;;;;;;6245408;22;20040;-76
2024/01/09 14:04:15;;;;;;;24.10;14.75;;;;;;;;;;6245036;22;20016;-76
2024/01/09 14:06:49;;;;;;;21.00;14.60;;;;;;;;;;6268584;22;20315;-76
2024/01/09 14:09:16;;;;;;;20.98;15.07;;;;;;;;;;6244995;22;20017;-76
2024/01/09 14:11:42;;;;;;;23.42;15.57;;;;;;;;;;6245208;22;20493;-76
2024/01/09 14:14:09;;;;;;;24.08;15.27;;;;;;;;;;6245003;22;20019;-76
2024/01/09 14:16:36;;;;;;;24.88;16.23;;;;;;;;;;6245454;22;20043;-76
2024/01/09 14:19:05;;;;;;;24.63;17.05;;;;;;;;;;6244843;22;20016;-76
2024/01/09 14:21:32;;;;;;;23.42;15.35;;;;;;;;;;6245589;22;20009;-76